Buechel, Germany

1:08 AM CEST on July 27, 2016 (GMT +0200)
Spangdahlem Air Base | | Change Station

Elev 1198 ft 49.98 °N, 6.70 °E | Updated 10 minutes ago

Clear
Clear
60 °F
Feels Like 60 °F
N
4
Wind Variable Wind from NNW

Today
High -- | Low -- °F
--% Chance of Precip.
Yesterday
High -- | Low -- °F
Precip. -- in
Pressure 30.08 in
Visibility 6.2 miles
Clouds Clear
Dew Point 57 °F
Humidity 91%
Rainfall 0.00 in
Snow Depth Not available.
5:53 AM 9:21 PM
Waning Gibbous, 50% visible
METAR ETAD 262258Z AUTO 34003KT 9999 CLR 16/14 A3013 RMK AO2 SLP185 T01550141 402330154 $
Pressure 30.08 in
Visibility 6.2 miles
Clouds Clear
Dew Point 57 °F
Humidity 91%
Rainfall 0.00 in
Snow Depth Not available.
5:53 AM 9:21 PM
Waning Gibbous, 50% visible
METAR ETAD 262258Z AUTO 34003KT 9999 CLR 16/14 A3013 RMK AO2 SLP185 T01550141 402330154 $

10-Day Weather Forecast

×

Almanac

Astronomy

Jul. 27, 2016 Rise Set
Actual Time
Civil Twilight
Nautical Twilight
Astronomical Twilight
Moon
Length of Visible Light
Length of Day
Tomorrow will be .
, % of the Moon is Illuminated

Today's Extremes

Country Highs Country Lows

Community

WunderPhotos

Upload Photos

1,927,729 photos uploaded!

WunderBlog® & News

Nearby

Air Quality

  Air Quality AQ Index Pollutant
Not available.

Snow Depth

Station Depth Elevation

Earthquake Activity

City Distance Mag. Time & Date
Minimum magnitude displayed is 2.5.

Coastal Water Temperatures

Place Temperature

Stations

Nearby Weather Stations

Station Location Temp. Windchill Dew Point Humidity Wind Precip. Elev Updated Type